sensor_id;sensor_type;location;lat;lon;timestamp;P1;durP1;ratioP1;P2;durP2;ratioP2
8001;SDS011;4046;48.774;8.732;2023-02-23T00:02:01;3.90;;;3.60;;
8001;SDS011;4046;48.774;8.732;2023-02-23T00:04:28;3.87;;;3.57;;
8001;SDS011;4046;48.774;8.732;2023-02-23T00:06:54;3.27;;;2.97;;
8001;SDS011;4046;48.774;8.732;2023-02-23T00:09:20;3.40;;;3.20;;
8001;SDS011;4046;48.774;8.732;2023-02-23T00:11:49;3.53;;;3.33;;
8001;SDS011;4046;48.774;8.732;2023-02-23T00:14:17;3.57;;;3.37;;
8001;SDS011;4046;48.774;8.732;2023-02-23T00:16:44;3.60;;;3.40;;
8001;SDS011;4046;48.774;8.732;2023-02-23T00:19:11;3.37;;;3.17;;
8001;SDS011;4046;48.774;8.732;2023-02-23T00:21:38;3.40;;;3.20;;
8001;SDS011;4046;48.774;8.732;2023-02-23T00:24:06;3.50;;;3.30;;
8001;SDS011;4046;48.774;8.732;2023-02-23T00:26:35;3.03;;;2.83;;
8001;SDS011;4046;48.774;8.732;2023-02-23T00:29:03;3.37;;;3.17;;
8001;SDS011;4046;48.774;8.732;2023-02-23T00:31:31;3.40;;;3.20;;
8001;SDS011;4046;48.774;8.732;2023-02-23T00:33:59;3.57;;;3.37;;
8001;SDS011;4046;48.774;8.732;2023-02-23T00:36:28;3.73;;;3.53;;
8001;SDS011;4046;48.774;8.732;2023-02-23T00:38:57;3.30;;;3.10;;
8001;SDS011;4046;48.774;8.732;2023-02-23T00:41:25;3.80;;;3.60;;
8001;SDS011;4046;48.774;8.732;2023-02-23T00:43:55;3.30;;;3.10;;
8001;SDS011;4046;48.774;8.732;2023-02-23T00:46:24;3.77;;;3.50;;
8001;SDS011;4046;48.774;8.732;2023-02-23T00:48:52;4.07;;;3.77;;
8001;SDS011;4046;48.774;8.732;2023-02-23T00:51:20;3.57;;;3.37;;
8001;SDS011;4046;48.774;8.732;2023-02-23T00:53:48;3.43;;;3.23;;
8001;SDS011;4046;48.774;8.732;2023-02-23T00:56:18;3.70;;;3.50;;
8001;SDS011;4046;48.774;8.732;2023-02-23T00:58:44;3.87;;;3.57;;
8001;SDS011;4046;48.774;8.732;2023-02-23T01:01:11;3.50;;;3.30;;
8001;SDS011;4046;48.774;8.732;2023-02-23T01:03:38;3.27;;;3.07;;
8001;SDS011;4046;48.774;8.732;2023-02-23T01:06:07;3.93;;;3.70;;
8001;SDS011;4046;48.774;8.732;2023-02-23T01:08:36;3.80;;;3.50;;
8001;SDS011;4046;48.774;8.732;2023-02-23T01:11:05;3.90;;;3.60;;
8001;SDS011;4046;48.774;8.732;2023-02-23T01:13:37;3.57;;;3.37;;
8001;SDS011;4046;48.774;8.732;2023-02-23T01:16:09;3.67;;;3.47;;
8001;SDS011;4046;48.774;8.732;2023-02-23T01:18:38;3.70;;;3.50;;
8001;SDS011;4046;48.774;8.732;2023-02-23T01:21:12;3.50;;;3.30;;
8001;SDS011;4046;48.774;8.732;2023-02-23T01:23:40;3.90;;;3.60;;
8001;SDS011;4046;48.774;8.732;2023-02-23T01:26:13;3.93;;;3.63;;
8001;SDS011;4046;48.774;8.732;2023-02-23T01:28:40;3.60;;;3.40;;
8001;SDS011;4046;48.774;8.732;2023-02-23T01:31:07;3.90;;;3.70;;
8001;SDS011;4046;48.774;8.732;2023-02-23T01:33:34;3.63;;;3.43;;
8001;SDS011;4046;48.774;8.732;2023-02-23T01:36:00;3.67;;;3.37;;
8001;SDS011;4046;48.774;8.732;2023-02-23T01:38:26;3.60;;;3.40;;
8001;SDS011;4046;48.774;8.732;2023-02-23T01:40:52;3.70;;;3.50;;
8001;SDS011;4046;48.774;8.732;2023-02-23T01:43:20;3.70;;;3.50;;
8001;SDS011;4046;48.774;8.732;2023-02-23T01:45:54;3.83;;;3.63;;
8001;SDS011;4046;48.774;8.732;2023-02-23T01:48:26;3.73;;;3.53;;
8001;SDS011;4046;48.774;8.732;2023-02-23T01:50:56;3.77;;;3.57;;
8001;SDS011;4046;48.774;8.732;2023-02-23T01:53:24;3.97;;;3.70;;
8001;SDS011;4046;48.774;8.732;2023-02-23T01:55:53;3.80;;;3.60;;
8001;SDS011;4046;48.774;8.732;2023-02-23T01:58:23;3.57;;;3.37;;
8001;SDS011;4046;48.774;8.732;2023-02-23T02:00:57;4.13;;;3.83;;
8001;SDS011;4046;48.774;8.732;2023-02-23T02:03:29;4.27;;;3.97;;
8001;SDS011;4046;48.774;8.732;2023-02-23T02:06:00;3.73;;;3.53;;
8001;SDS011;4046;48.774;8.732;2023-02-23T02:08:29;3.77;;;3.57;;
8001;SDS011;4046;48.774;8.732;2023-02-23T02:10:56;3.90;;;3.60;;
8001;SDS011;4046;48.774;8.732;2023-02-23T02:13:24;4.17;;;3.87;;
8001;SDS011;4046;48.774;8.732;2023-02-23T02:16:14;3.93;;;3.67;;
8001;SDS011;4046;48.774;8.732;2023-02-23T02:44:51;3.73;;;3.53;;
8001;SDS011;4046;48.774;8.732;2023-02-23T02:47:36;3.90;;;3.60;;
8001;SDS011;4046;48.774;8.732;2023-02-23T02:50:08;4.07;;;3.77;;
8001;SDS011;4046;48.774;8.732;2023-02-23T02:52:43;3.87;;;3.67;;
8001;SDS011;4046;48.774;8.732;2023-02-23T02:55:16;4.30;;;4.00;;
8001;SDS011;4046;48.774;8.732;2023-02-23T02:57:48;4.53;;;4.23;;
8001;SDS011;4046;48.774;8.732;2023-02-23T03:00:18;4.00;;;3.70;;
8001;SDS011;4046;48.774;8.732;2023-02-23T03:03:08;3.50;;;3.20;;
8001;SDS011;4046;48.774;8.732;2023-02-23T03:06:15;4.70;;;4.40;;
8001;SDS011;4046;48.774;8.732;2023-02-23T03:09:05;4.20;;;3.90;;
8001;SDS011;4046;48.774;8.732;2023-02-23T03:14:56;4.10;;;3.80;;
8001;SDS011;4046;48.774;8.732;2023-02-23T03:17:55;3.60;;;3.40;;
8001;SDS011;4046;48.774;8.732;2023-02-23T03:20:49;4.20;;;3.90;;
8001;SDS011;4046;48.774;8.732;2023-02-23T03:23:52;3.90;;;3.70;;
8001;SDS011;4046;48.774;8.732;2023-02-23T03:26:54;3.70;;;3.50;;
8001;SDS011;4046;48.774;8.732;2023-02-23T03:30:00;3.73;;;3.53;;
8001;SDS011;4046;48.774;8.732;2023-02-23T03:32:54;3.70;;;3.50;;
8001;SDS011;4046;48.774;8.732;2023-02-23T03:36:26;3.87;;;3.57;;
8001;SDS011;4046;48.774;8.732;2023-02-23T03:39:02;4.20;;;3.90;;
8001;SDS011;4046;48.774;8.732;2023-02-23T03:41:56;3.93;;;3.73;;
8001;SDS011;4046;48.774;8.732;2023-02-23T03:44:45;3.90;;;3.60;;
8001;SDS011;4046;48.774;8.732;2023-02-23T03:47:32;3.60;;;3.30;;
8001;SDS011;4046;48.774;8.732;2023-02-23T03:50:21;3.57;;;3.37;;
8001;SDS011;4046;48.774;8.732;2023-02-23T03:53:12;3.77;;;3.57;;
8001;SDS011;4046;48.774;8.732;2023-02-23T03:56:00;3.47;;;3.27;;
8001;SDS011;4046;48.774;8.732;2023-02-23T03:58:47;4.00;;;3.70;;
8001;SDS011;4046;48.774;8.732;2023-02-23T04:01:37;3.67;;;3.47;;
8001;SDS011;4046;48.774;8.732;2023-02-23T04:04:23;3.80;;;3.60;;
8001;SDS011;4046;48.774;8.732;2023-02-23T04:07:10;3.77;;;3.57;;
8001;SDS011;4046;48.774;8.732;2023-02-23T04:09:59;3.90;;;3.60;;
8001;SDS011;4046;48.774;8.732;2023-02-23T04:12:59;4.00;;;3.70;;
8001;SDS011;4046;48.774;8.732;2023-02-23T04:15:52;3.63;;;3.43;;
8001;SDS011;4046;48.774;8.732;2023-02-23T04:18:25;3.40;;;3.20;;
8001;SDS011;4046;48.774;8.732;2023-02-23T04:20:57;3.97;;;3.67;;
8001;SDS011;4046;48.774;8.732;2023-02-23T04:23:24;4.10;;;3.80;;
8001;SDS011;4046;48.774;8.732;2023-02-23T04:25:51;3.87;;;3.67;;
8001;SDS011;4046;48.774;8.732;2023-02-23T04:28:17;3.70;;;3.50;;
8001;SDS011;4046;48.774;8.732;2023-02-23T04:30:45;3.83;;;3.57;;
8001;SDS011;4046;48.774;8.732;2023-02-23T04:33:11;3.70;;;3.50;;
8001;SDS011;4046;48.774;8.732;2023-02-23T04:35:38;4.53;;;4.23;;
8001;SDS011;4046;48.774;8.732;2023-02-23T04:38:05;3.50;;;3.30;;
8001;SDS011;4046;48.774;8.732;2023-02-23T04:40:31;3.60;;;3.40;;
8001;SDS011;4046;48.774;8.732;2023-02-23T04:42:58;3.60;;;3.40;;
8001;SDS011;4046;48.774;8.732;2023-02-23T04:45:24;4.00;;;3.70;;
8001;SDS011;4046;48.774;8.732;2023-02-23T04:47:51;3.90;;;3.70;;
8001;SDS011;4046;48.774;8.732;2023-02-23T04:50:17;3.67;;;3.47;;
8001;SDS011;4046;48.774;8.732;2023-02-23T04:52:44;4.23;;;4.00;;
8001;SDS011;4046;48.774;8.732;2023-02-23T04:55:20;3.80;;;3.50;;
8001;SDS011;4046;48.774;8.732;2023-02-23T04:57:48;3.50;;;3.30;;
8001;SDS011;4046;48.774;8.732;2023-02-23T05:00:15;3.97;;;3.67;;
8001;SDS011;4046;48.774;8.732;2023-02-23T05:02:42;3.67;;;3.47;;
8001;SDS011;4046;48.774;8.732;2023-02-23T05:05:08;3.70;;;3.40;;
8001;SDS011;4046;48.774;8.732;2023-02-23T05:07:35;3.40;;;3.20;;
8001;SDS011;4046;48.774;8.732;2023-02-23T05:10:01;3.80;;;3.50;;
8001;SDS011;4046;48.774;8.732;2023-02-23T05:12:29;3.83;;;3.60;;
8001;SDS011;4046;48.774;8.732;2023-02-23T05:14:56;3.87;;;3.67;;
8001;SDS011;4046;48.774;8.732;2023-02-23T05:17:22;3.47;;;3.27;;
8001;SDS011;4046;48.774;8.732;2023-02-23T05:19:49;3.87;;;3.60;;
8001;SDS011;4046;48.774;8.732;2023-02-23T05:22:16;3.97;;;3.77;;
8001;SDS011;4046;48.774;8.732;2023-02-23T05:24:42;3.57;;;3.37;;
8001;SDS011;4046;48.774;8.732;2023-02-23T05:27:09;3.97;;;3.77;;
8001;SDS011;4046;48.774;8.732;2023-02-23T05:29:36;3.90;;;3.70;;
8001;SDS011;4046;48.774;8.732;2023-02-23T05:32:02;3.53;;;3.33;;
8001;SDS011;4046;48.774;8.732;2023-02-23T05:34:28;3.83;;;3.63;;
8001;SDS011;4046;48.774;8.732;2023-02-23T05:36:54;4.00;;;3.70;;
8001;SDS011;4046;48.774;8.732;2023-02-23T05:39:20;3.50;;;3.30;;
8001;SDS011;4046;48.774;8.732;2023-02-23T05:41:47;3.63;;;3.43;;
8001;SDS011;4046;48.774;8.732;2023-02-23T05:44:13;4.10;;;3.80;;
8001;SDS011;4046;48.774;8.732;2023-02-23T05:46:39;3.33;;;3.13;;
8001;SDS011;4046;48.774;8.732;2023-02-23T05:49:05;3.50;;;3.30;;
8001;SDS011;4046;48.774;8.732;2023-02-23T05:51:33;4.10;;;3.80;;
8001;SDS011;4046;48.774;8.732;2023-02-23T05:54:00;3.47;;;3.27;;
8001;SDS011;4046;48.774;8.732;2023-02-23T05:56:26;3.37;;;3.17;;
8001;SDS011;4046;48.774;8.732;2023-02-23T05:58:53;4.00;;;3.80;;
8001;SDS011;4046;48.774;8.732;2023-02-23T06:01:22;3.47;;;3.27;;
8001;SDS011;4046;48.774;8.732;2023-02-23T06:03:49;3.60;;;3.40;;
8001;SDS011;4046;48.774;8.732;2023-02-23T06:06:16;4.33;;;4.03;;
8001;SDS011;4046;48.774;8.732;2023-02-23T06:08:42;3.40;;;3.20;;
8001;SDS011;4046;48.774;8.732;2023-02-23T06:11:09;3.73;;;3.53;;
8001;SDS011;4046;48.774;8.732;2023-02-23T06:13:35;3.80;;;3.60;;
8001;SDS011;4046;48.774;8.732;2023-02-23T06:16:02;3.43;;;3.23;;
8001;SDS011;4046;48.774;8.732;2023-02-23T06:18:28;3.63;;;3.43;;
8001;SDS011;4046;48.774;8.732;2023-02-23T06:20:55;3.20;;;3.00;;
8001;SDS011;4046;48.774;8.732;2023-02-23T06:23:29;4.10;;;3.80;;
8001;SDS011;4046;48.774;8.732;2023-02-23T06:25:56;3.43;;;3.23;;
8001;SDS011;4046;48.774;8.732;2023-02-23T06:28:24;3.70;;;3.50;;
8001;SDS011;4046;48.774;8.732;2023-02-23T06:30:51;3.50;;;3.30;;
8001;SDS011;4046;48.774;8.732;2023-02-23T06:33:18;3.53;;;3.33;;
8001;SDS011;4046;48.774;8.732;2023-02-23T06:35:45;3.63;;;3.43;;
8001;SDS011;4046;48.774;8.732;2023-02-23T06:38:11;3.47;;;3.27;;
8001;SDS011;4046;48.774;8.732;2023-02-23T06:40:38;3.60;;;3.40;;
8001;SDS011;4046;48.774;8.732;2023-02-23T06:43:04;3.67;;;3.47;;
8001;SDS011;4046;48.774;8.732;2023-02-23T06:45:30;3.50;;;3.30;;
8001;SDS011;4046;48.774;8.732;2023-02-23T06:48:00;3.90;;;3.60;;
8001;SDS011;4046;48.774;8.732;2023-02-23T06:50:26;3.80;;;3.60;;
8001;SDS011;4046;48.774;8.732;2023-02-23T06:52:53;3.50;;;3.30;;
8001;SDS011;4046;48.774;8.732;2023-02-23T06:55:21;3.77;;;3.57;;
8001;SDS011;4046;48.774;8.732;2023-02-23T06:57:48;3.90;;;3.63;;
8001;SDS011;4046;48.774;8.732;2023-02-23T07:00:14;4.30;;;4.00;;
8001;SDS011;4046;48.774;8.732;2023-02-23T07:02:42;3.80;;;3.60;;
8001;SDS011;4046;48.774;8.732;2023-02-23T07:05:09;3.60;;;3.40;;
8001;SDS011;4046;48.774;8.732;2023-02-23T07:07:36;3.70;;;3.40;;
8001;SDS011;4046;48.774;8.732;2023-02-23T07:10:02;4.20;;;3.90;;
8001;SDS011;4046;48.774;8.732;2023-02-23T07:12:30;3.97;;;3.70;;
8001;SDS011;4046;48.774;8.732;2023-02-23T07:14:56;3.73;;;3.53;;
8001;SDS011;4046;48.774;8.732;2023-02-23T07:17:22;3.63;;;3.43;;
8001;SDS011;4046;48.774;8.732;2023-02-23T07:19:49;3.60;;;3.40;;
8001;SDS011;4046;48.774;8.732;2023-02-23T07:22:15;3.53;;;3.33;;
8001;SDS011;4046;48.774;8.732;2023-02-23T07:24:41;4.03;;;3.83;;
8001;SDS011;4046;48.774;8.732;2023-02-23T07:27:07;3.53;;;3.33;;
8001;SDS011;4046;48.774;8.732;2023-02-23T07:29:33;3.73;;;3.53;;
8001;SDS011;4046;48.774;8.732;2023-02-23T07:31:59;3.90;;;3.70;;
8001;SDS011;4046;48.774;8.732;2023-02-23T07:34:26;4.27;;;3.97;;
8001;SDS011;4046;48.774;8.732;2023-02-23T07:36:52;3.37;;;3.17;;
8001;SDS011;4046;48.774;8.732;2023-02-23T07:39:18;3.50;;;3.30;;
8001;SDS011;4046;48.774;8.732;2023-02-23T07:41:45;3.80;;;3.60;;
8001;SDS011;4046;48.774;8.732;2023-02-23T07:44:11;3.77;;;3.47;;
8001;SDS011;4046;48.774;8.732;2023-02-23T07:46:37;3.60;;;3.30;;
8001;SDS011;4046;48.774;8.732;2023-02-23T07:49:03;4.37;;;4.07;;
8001;SDS011;4046;48.774;8.732;2023-02-23T07:51:29;4.40;;;4.10;;
8001;SDS011;4046;48.774;8.732;2023-02-23T07:53:55;3.67;;;3.47;;
8001;SDS011;4046;48.774;8.732;2023-02-23T07:56:26;3.93;;;3.63;;
8001;SDS011;4046;48.774;8.732;2023-02-23T07:58:52;3.27;;;3.07;;
8001;SDS011;4046;48.774;8.732;2023-02-23T08:01:18;3.50;;;3.30;;
8001;SDS011;4046;48.774;8.732;2023-02-23T08:03:44;3.73;;;3.43;;
8001;SDS011;4046;48.774;8.732;2023-02-23T08:06:14;3.90;;;3.70;;
8001;SDS011;4046;48.774;8.732;2023-02-23T08:08:42;4.20;;;4.00;;
8001;SDS011;4046;48.774;8.732;2023-02-23T08:11:08;3.60;;;3.40;;
8001;SDS011;4046;48.774;8.732;2023-02-23T08:13:35;3.53;;;3.33;;
8001;SDS011;4046;48.774;8.732;2023-02-23T08:16:01;3.57;;;3.37;;
8001;SDS011;4046;48.774;8.732;2023-02-23T08:18:27;4.17;;;3.87;;
8001;SDS011;4046;48.774;8.732;2023-02-23T08:20:57;3.80;;;3.60;;
8001;SDS011;4046;48.774;8.732;2023-02-23T08:23:25;3.27;;;3.07;;
8001;SDS011;4046;48.774;8.732;2023-02-23T08:25:53;3.77;;;3.57;;
8001;SDS011;4046;48.774;8.732;2023-02-23T08:28:20;4.23;;;3.93;;
8001;SDS011;4046;48.774;8.732;2023-02-23T08:30:46;3.80;;;3.50;;
8001;SDS011;4046;48.774;8.732;2023-02-23T08:33:13;3.73;;;3.47;;
8001;SDS011;4046;48.774;8.732;2023-02-23T08:35:39;3.73;;;3.43;;
8001;SDS011;4046;48.774;8.732;2023-02-23T08:38:05;3.60;;;3.40;;
8001;SDS011;4046;48.774;8.732;2023-02-23T08:40:32;3.80;;;3.50;;
8001;SDS011;4046;48.774;8.732;2023-02-23T08:42:58;3.70;;;3.50;;
8001;SDS011;4046;48.774;8.732;2023-02-23T08:45:24;3.60;;;3.40;;
8001;SDS011;4046;48.774;8.732;2023-02-23T08:47:54;3.23;;;3.03;;
8001;SDS011;4046;48.774;8.732;2023-02-23T08:50:21;3.40;;;3.20;;
8001;SDS011;4046;48.774;8.732;2023-02-23T08:52:47;3.80;;;3.50;;
8001;SDS011;4046;48.774;8.732;2023-02-23T08:55:13;4.00;;;3.80;;
8001;SDS011;4046;48.774;8.732;2023-02-23T08:57:42;3.63;;;3.37;;
8001;SDS011;4046;48.774;8.732;2023-02-23T09:00:09;3.37;;;3.17;;
8001;SDS011;4046;48.774;8.732;2023-02-23T09:02:44;3.20;;;3.00;;
8001;SDS011;4046;48.774;8.732;2023-02-23T09:05:12;3.40;;;3.20;;
8001;SDS011;4046;48.774;8.732;2023-02-23T09:07:39;4.10;;;3.80;;
8001;SDS011;4046;48.774;8.732;2023-02-23T09:10:13;3.73;;;3.53;;
8001;SDS011;4046;48.774;8.732;2023-02-23T09:12:41;3.87;;;3.67;;
8001;SDS011;4046;48.774;8.732;2023-02-23T09:15:07;3.63;;;3.43;;
8001;SDS011;4046;48.774;8.732;2023-02-23T09:17:34;3.80;;;3.60;;
8001;SDS011;4046;48.774;8.732;2023-02-23T09:20:00;4.20;;;3.90;;
8001;SDS011;4046;48.774;8.732;2023-02-23T09:22:26;3.87;;;3.67;;
8001;SDS011;4046;48.774;8.732;2023-02-23T09:24:52;4.33;;;4.03;;
8001;SDS011;4046;48.774;8.732;2023-02-23T09:27:19;3.30;;;3.10;;
8001;SDS011;4046;48.774;8.732;2023-02-23T09:29:45;4.20;;;3.90;;
8001;SDS011;4046;48.774;8.732;2023-02-23T09:32:11;3.70;;;3.50;;
8001;SDS011;4046;48.774;8.732;2023-02-23T09:34:37;3.87;;;3.60;;
8001;SDS011;4046;48.774;8.732;2023-02-23T09:37:04;3.60;;;3.40;;
8001;SDS011;4046;48.774;8.732;2023-02-23T09:39:31;3.93;;;3.73;;
8001;SDS011;4046;48.774;8.732;2023-02-23T09:49:58;3.53;;;3.33;;
8001;SDS011;4046;48.774;8.732;2023-02-23T09:52:32;3.40;;;3.20;;
8001;SDS011;4046;48.774;8.732;2023-02-23T09:55:04;3.87;;;3.60;;
8001;SDS011;4046;48.774;8.732;2023-02-23T09:57:38;4.00;;;3.70;;
8001;SDS011;4046;48.774;8.732;2023-02-23T10:00:23;3.83;;;3.53;;
8001;SDS011;4046;48.774;8.732;2023-02-23T10:05:51;3.93;;;3.73;;
8001;SDS011;4046;48.774;8.732;2023-02-23T10:08:43;3.50;;;3.30;;
8001;SDS011;4046;48.774;8.732;2023-02-23T10:11:27;3.60;;;3.40;;
8001;SDS011;4046;48.774;8.732;2023-02-23T10:20:28;3.77;;;3.47;;
8001;SDS011;4046;48.774;8.732;2023-02-23T10:23:11;3.27;;;3.07;;
8001;SDS011;4046;48.774;8.732;2023-02-23T10:25:45;3.27;;;3.07;;
8001;SDS011;4046;48.774;8.732;2023-02-23T10:28:15;3.50;;;3.30;;
8001;SDS011;4046;48.774;8.732;2023-02-23T10:30:43;3.87;;;3.67;;
8001;SDS011;4046;48.774;8.732;2023-02-23T10:33:23;3.90;;;3.70;;
8001;SDS011;4046;48.774;8.732;2023-02-23T10:36:04;3.40;;;3.20;;
8001;SDS011;4046;48.774;8.732;2023-02-23T10:38:36;3.43;;;3.23;;
8001;SDS011;4046;48.774;8.732;2023-02-23T10:41:02;3.03;;;2.87;;
8001;SDS011;4046;48.774;8.732;2023-02-23T10:43:30;3.10;;;2.90;;
8001;SDS011;4046;48.774;8.732;2023-02-23T10:45:57;3.00;;;2.80;;
8001;SDS011;4046;48.774;8.732;2023-02-23T10:48:28;3.20;;;3.00;;
8001;SDS011;4046;48.774;8.732;2023-02-23T10:50:58;3.50;;;3.30;;
8001;SDS011;4046;48.774;8.732;2023-02-23T10:53:32;3.10;;;2.90;;
8001;SDS011;4046;48.774;8.732;2023-02-23T10:56:12;3.40;;;3.20;;
8001;SDS011;4046;48.774;8.732;2023-02-23T11:01:11;3.20;;;3.00;;
8001;SDS011;4046;48.774;8.732;2023-02-23T11:03:57;3.10;;;2.90;;
8001;SDS011;4046;48.774;8.732;2023-02-23T11:06:48;2.40;;;2.30;;
8001;SDS011;4046;48.774;8.732;2023-02-23T11:09:20;3.17;;;2.87;;
8001;SDS011;4046;48.774;8.732;2023-02-23T11:11:57;3.40;;;3.20;;
8001;SDS011;4046;48.774;8.732;2023-02-23T11:14:50;3.00;;;2.80;;
8001;SDS011;4046;48.774;8.732;2023-02-23T11:17:23;3.40;;;3.20;;
8001;SDS011;4046;48.774;8.732;2023-02-23T11:19:55;3.20;;;3.00;;
8001;SDS011;4046;48.774;8.732;2023-02-23T11:22:31;3.13;;;2.93;;
8001;SDS011;4046;48.774;8.732;2023-02-23T11:25:00;3.23;;;3.03;;
8001;SDS011;4046;48.774;8.732;2023-02-23T11:27:31;3.10;;;2.90;;
8001;SDS011;4046;48.774;8.732;2023-02-23T11:29:58;3.07;;;2.87;;
8001;SDS011;4046;48.774;8.732;2023-02-23T11:32:31;3.27;;;3.07;;
8001;SDS011;4046;48.774;8.732;2023-02-23T11:35:16;3.23;;;3.03;;
8001;SDS011;4046;48.774;8.732;2023-02-23T11:37:52;3.10;;;2.90;;
8001;SDS011;4046;48.774;8.732;2023-02-23T11:40:21;3.20;;;3.00;;
8001;SDS011;4046;48.774;8.732;2023-02-23T11:42:54;3.07;;;2.87;;
8001;SDS011;4046;48.774;8.732;2023-02-23T11:45:32;3.03;;;2.83;;
8001;SDS011;4046;48.774;8.732;2023-02-23T11:48:18;2.80;;;2.60;;
8001;SDS011;4046;48.774;8.732;2023-02-23T11:51:07;3.20;;;3.00;;
8001;SDS011;4046;48.774;8.732;2023-02-23T11:53:35;3.47;;;3.27;;
8001;SDS011;4046;48.774;8.732;2023-02-23T11:56:05;2.80;;;2.60;;
8001;SDS011;4046;48.774;8.732;2023-02-23T11:58:54;3.17;;;2.97;;
8001;SDS011;4046;48.774;8.732;2023-02-23T12:01:44;2.73;;;2.53;;
8001;SDS011;4046;48.774;8.732;2023-02-23T12:10:24;2.73;;;2.63;;
8001;SDS011;4046;48.774;8.732;2023-02-23T12:18:50;2.70;;;2.50;;
8001;SDS011;4046;48.774;8.732;2023-02-23T12:21:32;2.73;;;2.53;;
8001;SDS011;4046;48.774;8.732;2023-02-23T12:26:35;2.73;;;2.53;;
8001;SDS011;4046;48.774;8.732;2023-02-23T12:29:41;2.70;;;2.50;;
8001;SDS011;4046;48.774;8.732;2023-02-23T12:32:10;2.80;;;2.60;;
8001;SDS011;4046;48.774;8.732;2023-02-23T12:34:57;2.37;;;2.17;;
8001;SDS011;4046;48.774;8.732;2023-02-23T12:37:30;2.30;;;2.20;;
8001;SDS011;4046;48.774;8.732;2023-02-23T12:40:04;2.70;;;2.50;;
8001;SDS011;4046;48.774;8.732;2023-02-23T12:45:38;2.70;;;2.60;;
8001;SDS011;4046;48.774;8.732;2023-02-23T12:51:15;2.60;;;2.40;;
8001;SDS011;4046;48.774;8.732;2023-02-23T12:53:47;2.63;;;2.43;;
8001;SDS011;4046;48.774;8.732;2023-02-23T13:02:12;2.40;;;2.20;;
8001;SDS011;4046;48.774;8.732;2023-02-23T13:05:30;2.80;;;2.60;;
8001;SDS011;4046;48.774;8.732;2023-02-23T13:16:09;2.40;;;2.30;;
8001;SDS011;4046;48.774;8.732;2023-02-23T13:18:44;2.70;;;2.50;;
8001;SDS011;4046;48.774;8.732;2023-02-23T13:21:28;2.50;;;2.30;;
8001;SDS011;4046;48.774;8.732;2023-02-23T13:32:02;2.43;;;2.27;;
8001;SDS011;4046;48.774;8.732;2023-02-23T13:34:32;2.60;;;2.50;;
8001;SDS011;4046;48.774;8.732;2023-02-23T13:37:02;2.43;;;2.23;;
8001;SDS011;4046;48.774;8.732;2023-02-23T13:39:40;2.30;;;2.20;;
8001;SDS011;4046;48.774;8.732;2023-02-23T13:42:41;2.63;;;2.43;;
8001;SDS011;4046;48.774;8.732;2023-02-23T13:45:37;2.23;;;2.13;;
8001;SDS011;4046;48.774;8.732;2023-02-23T13:51:01;2.43;;;2.23;;
8001;SDS011;4046;48.774;8.732;2023-02-23T13:56:27;2.70;;;2.50;;
8001;SDS011;4046;48.774;8.732;2023-02-23T13:59:05;2.63;;;2.03;;
8001;SDS011;4046;48.774;8.732;2023-02-23T14:01:35;2.47;;;2.27;;
8001;SDS011;4046;48.774;8.732;2023-02-23T14:04:04;2.17;;;2.00;;
8001;SDS011;4046;48.774;8.732;2023-02-23T14:06:38;2.37;;;2.17;;
8001;SDS011;4046;48.774;8.732;2023-02-23T14:09:07;2.30;;;2.10;;
8001;SDS011;4046;48.774;8.732;2023-02-23T14:11:46;2.23;;;2.13;;
8001;SDS011;4046;48.774;8.732;2023-02-23T14:20:04;1.90;;;1.70;;
8001;SDS011;4046;48.774;8.732;2023-02-23T14:31:28;2.27;;;2.17;;
8001;SDS011;4046;48.774;8.732;2023-02-23T14:33:49;2.00;;;1.90;;
8001;SDS011;4046;48.774;8.732;2023-02-23T14:41:23;2.20;;;2.03;;
8001;SDS011;4046;48.774;8.732;2023-02-23T14:44:05;2.03;;;1.93;;
8001;SDS011;4046;48.774;8.732;2023-02-23T14:46:36;2.17;;;2.07;;
8001;SDS011;4046;48.774;8.732;2023-02-23T14:49:07;2.00;;;1.90;;
8001;SDS011;4046;48.774;8.732;2023-02-23T14:51:37;2.13;;;1.90;;
8001;SDS011;4046;48.774;8.732;2023-02-23T14:54:10;2.43;;;2.23;;
8001;SDS011;4046;48.774;8.732;2023-02-23T14:56:47;2.10;;;2.00;;
8001;SDS011;4046;48.774;8.732;2023-02-23T14:59:19;2.03;;;1.93;;
8001;SDS011;4046;48.774;8.732;2023-02-23T15:01:48;2.20;;;2.10;;
8001;SDS011;4046;48.774;8.732;2023-02-23T15:04:17;2.20;;;2.10;;
8001;SDS011;4046;48.774;8.732;2023-02-23T15:06:47;2.37;;;2.10;;
8001;SDS011;4046;48.774;8.732;2023-02-23T15:09:30;1.90;;;1.80;;
8001;SDS011;4046;48.774;8.732;2023-02-23T15:12:02;2.20;;;2.00;;
8001;SDS011;4046;48.774;8.732;2023-02-23T15:14:37;1.87;;;1.77;;
8001;SDS011;4046;48.774;8.732;2023-02-23T15:17:05;2.10;;;2.00;;
8001;SDS011;4046;48.774;8.732;2023-02-23T15:19:35;1.90;;;1.80;;
8001;SDS011;4046;48.774;8.732;2023-02-23T15:22:03;2.00;;;1.90;;
8001;SDS011;4046;48.774;8.732;2023-02-23T15:24:46;2.50;;;1.90;;
8001;SDS011;4046;48.774;8.732;2023-02-23T15:27:17;2.17;;;2.07;;
8001;SDS011;4046;48.774;8.732;2023-02-23T15:29:50;1.93;;;1.77;;
8001;SDS011;4046;48.774;8.732;2023-02-23T15:32:18;1.90;;;1.80;;
8001;SDS011;4046;48.774;8.732;2023-02-23T15:34:45;2.20;;;2.10;;
8001;SDS011;4046;48.774;8.732;2023-02-23T15:37:34;1.70;;;1.60;;
8001;SDS011;4046;48.774;8.732;2023-02-23T15:40:04;2.10;;;1.90;;
8001;SDS011;4046;48.774;8.732;2023-02-23T15:42:40;1.80;;;1.70;;
8001;SDS011;4046;48.774;8.732;2023-02-23T15:45:30;1.83;;;1.70;;
8001;SDS011;4046;48.774;8.732;2023-02-23T15:48:03;2.07;;;1.97;;
8001;SDS011;4046;48.774;8.732;2023-02-23T15:50:32;2.20;;;1.70;;
8001;SDS011;4046;48.774;8.732;2023-02-23T15:53:05;1.67;;;1.57;;
8001;SDS011;4046;48.774;8.732;2023-02-23T15:55:38;2.20;;;2.10;;
8001;SDS011;4046;48.774;8.732;2023-02-23T16:00:43;2.17;;;2.07;;
8001;SDS011;4046;48.774;8.732;2023-02-23T16:03:21;1.90;;;1.80;;
8001;SDS011;4046;48.774;8.732;2023-02-23T16:08:33;1.47;;;1.37;;
8001;SDS011;4046;48.774;8.732;2023-02-23T16:13:33;1.90;;;1.80;;
8001;SDS011;4046;48.774;8.732;2023-02-23T16:15:59;1.90;;;1.80;;
8001;SDS011;4046;48.774;8.732;2023-02-23T16:18:37;1.90;;;1.80;;
8001;SDS011;4046;48.774;8.732;2023-02-23T16:21:05;1.73;;;1.63;;
8001;SDS011;4046;48.774;8.732;2023-02-23T16:23:34;1.80;;;1.70;;
8001;SDS011;4046;48.774;8.732;2023-02-23T16:26:08;1.80;;;1.70;;
8001;SDS011;4046;48.774;8.732;2023-02-23T16:28:40;1.73;;;1.63;;
8001;SDS011;4046;48.774;8.732;2023-02-23T16:31:08;1.83;;;1.73;;
8001;SDS011;4046;48.774;8.732;2023-02-23T16:33:49;1.60;;;1.50;;
8001;SDS011;4046;48.774;8.732;2023-02-23T16:36:21;2.20;;;2.10;;
8001;SDS011;4046;48.774;8.732;2023-02-23T16:38:56;1.80;;;1.70;;
8001;SDS011;4046;48.774;8.732;2023-02-23T16:41:30;1.97;;;1.80;;
8001;SDS011;4046;48.774;8.732;2023-02-23T16:43:59;1.90;;;1.80;;
8001;SDS011;4046;48.774;8.732;2023-02-23T16:46:28;1.57;;;1.47;;
8001;SDS011;4046;48.774;8.732;2023-02-23T16:49:13;2.20;;;2.00;;
8001;SDS011;4046;48.774;8.732;2023-02-23T16:51:39;1.83;;;1.57;;
8001;SDS011;4046;48.774;8.732;2023-02-23T16:54:05;2.23;;;2.03;;
8001;SDS011;4046;48.774;8.732;2023-02-23T16:56:32;1.77;;;1.67;;
8001;SDS011;4046;48.774;8.732;2023-02-23T16:59:00;1.80;;;1.70;;
8001;SDS011;4046;48.774;8.732;2023-02-23T17:01:28;2.00;;;1.90;;
8001;SDS011;4046;48.774;8.732;2023-02-23T17:03:54;1.83;;;1.70;;
8001;SDS011;4046;48.774;8.732;2023-02-23T17:06:23;1.73;;;1.63;;
8001;SDS011;4046;48.774;8.732;2023-02-23T17:08:50;1.83;;;1.70;;
8001;SDS011;4046;48.774;8.732;2023-02-23T17:11:16;1.80;;;1.70;;
8001;SDS011;4046;48.774;8.732;2023-02-23T17:13:42;2.67;;;1.90;;
8001;SDS011;4046;48.774;8.732;2023-02-23T17:16:10;1.90;;;1.80;;
8001;SDS011;4046;48.774;8.732;2023-02-23T17:18:37;1.83;;;1.73;;
8001;SDS011;4046;48.774;8.732;2023-02-23T17:21:05;1.60;;;1.50;;
8001;SDS011;4046;48.774;8.732;2023-02-23T17:23:34;1.83;;;1.73;;
8001;SDS011;4046;48.774;8.732;2023-02-23T17:26:16;1.60;;;1.50;;
8001;SDS011;4046;48.774;8.732;2023-02-23T17:28:47;2.00;;;1.80;;
8001;SDS011;4046;48.774;8.732;2023-02-23T17:31:14;1.90;;;1.80;;
8001;SDS011;4046;48.774;8.732;2023-02-23T17:33:42;1.50;;;1.40;;
8001;SDS011;4046;48.774;8.732;2023-02-23T17:36:10;1.80;;;1.70;;
8001;SDS011;4046;48.774;8.732;2023-02-23T17:38:39;1.60;;;1.50;;
8001;SDS011;4046;48.774;8.732;2023-02-23T17:41:11;2.10;;;2.00;;
8001;SDS011;4046;48.774;8.732;2023-02-23T17:43:40;1.80;;;1.70;;
8001;SDS011;4046;48.774;8.732;2023-02-23T17:46:06;1.67;;;1.57;;
8001;SDS011;4046;48.774;8.732;2023-02-23T17:48:33;1.43;;;1.33;;
8001;SDS011;4046;48.774;8.732;2023-02-23T17:51:01;1.70;;;1.60;;